Campbell AAF (Fort Campbell) Air Field
KHOP : now visible

Airfield :











YOU CAN JOIN US ON...

 
LOGIN :

Register | Disclaimer

   EN    FR    IT 

 









Legend :    VFR   Marginal VFR   IFR   Intensive IFR   Very Intensive IFR
Visi :
Ceiling :
>= 8 km
>= 3000ft
5 to 8 km
1000 to 3000 ft
1500m to 5 km
500 to 1000 ft
800 to 1500m
200 to 500 ft
< 800m
< 200 ft
Symbols :   Thunderstorms  Fog  Heavy snow  Heavy precipitations  Wind > 20 kt






- Airport Elevation : 573 ft


KHOP - Campbell AAF (Fort Campbell) Air Field

CURRENT METAR :
  • 280556Z AUTO 00000KT 10SM BKN050 16/15 A2994 RMK AO2 SLP138 T01560154 10189 20156 402090145 58001

EXPIRED METARs :
  • 280456Z AUTO 30004KT 10SM OVC049 16/16 A2995 RMK AO2 SLP141 T01590157
  • 280356Z AUTO 31006KT 10SM OVC048 17/16 A2995 RMK AO2 SLP141 T01660164

TAF TAF KHOP
Valid from the 28 at 00:00 until the 29 at 06:00 UTC


280000Z 2800/2906 27009KT 9999 BKN025 OVC040 QNH2986INS
BECMG 2808/2809 VRB06KT 8000 BR FEW005 OVC020 QNH2992INS
TEMPO 2809/2813 4800 BR SCT005 OVC012
BECMG 2813/2814 VRB06KT 9999 NSW SCT012 SCT020 QNH2988INS TX23/2820Z TN12/2808Z
KZME FIR / North America



MET'MAP, your aeronautical weather chart ! - Copyright ORBIFLY December 2007 - Disclaimer

ORBIFLY MET'MAP TEAM :

Programming & Development : Alexandra Zaïnal
Original concept : Baudouin d'Aumeries
Technical & hardware support : Manuel Goepfert
Assistance : Marc-Olivier Méhu

Contact : metmap@orbifly.com




SOURCES & CREDITS :

   NOAA       Earth
Advisory